createdAt,value
2019-05-25T00:00:56.545Z,87.90
2019-05-25T00:03:25.280Z,88.10
2019-05-25T00:05:54.018Z,87.80
2019-05-25T00:08:22.683Z,87.80
2019-05-25T00:10:51.442Z,87.70
2019-05-25T00:13:20.111Z,87.80
2019-05-25T00:15:49.050Z,87.70
2019-05-25T00:18:17.847Z,87.50
2019-05-25T00:20:46.541Z,87.60
2019-05-25T00:23:15.214Z,87.90
2019-05-25T00:25:43.893Z,87.70
2019-05-25T00:28:12.567Z,87.60
2019-05-25T00:30:41.386Z,87.60
2019-05-25T00:33:10.069Z,87.60
2019-05-25T00:35:38.891Z,87.60
2019-05-25T00:38:07.585Z,87.60
2019-05-25T00:40:36.239Z,87.80
2019-05-25T00:43:05.089Z,87.70
2019-05-25T00:45:33.825Z,88.20
2019-05-25T00:48:02.481Z,88.20
2019-05-25T00:50:32.733Z,88.80
2019-05-25T00:53:01.496Z,88.60
2019-05-25T00:55:30.419Z,89.10
2019-05-25T00:57:59.248Z,89.40
2019-05-25T01:00:27.981Z,89.40
2019-05-25T01:02:56.654Z,89.00
2019-05-25T01:05:25.338Z,89.00
2019-05-25T01:07:53.995Z,89.10
2019-05-25T01:10:22.763Z,89.30
2019-05-25T01:12:51.418Z,89.60
2019-05-25T01:15:20.450Z,89.60
2019-05-25T01:17:49.315Z,89.60
2019-05-25T01:20:18.771Z,89.70
2019-05-25T01:22:47.511Z,89.60
2019-05-25T01:25:17.206Z,89.70
2019-05-25T01:27:45.937Z,90.00
2019-05-25T01:30:15.350Z,90.00
2019-05-25T01:32:44.054Z,89.70
2019-05-25T01:35:12.841Z,89.50
2019-05-25T01:37:41.598Z,89.40
2019-05-25T01:40:11.011Z,89.50
2019-05-25T01:42:39.667Z,89.70
2019-05-25T01:45:09.368Z,89.90
2019-05-25T01:47:38.040Z,90.10
2019-05-25T01:50:07.233Z,90.00
2019-05-25T01:52:36.130Z,90.00
2019-05-25T01:55:12.308Z,89.90
2019-05-25T01:57:41.636Z,90.10
2019-05-25T02:00:14.794Z,90.30
2019-05-25T02:02:45.226Z,90.30
2019-05-25T02:05:23.689Z,90.20
2019-05-25T02:07:52.371Z,90.30
2019-05-25T02:10:21.473Z,90.50
2019-05-25T02:12:51.811Z,90.50
2019-05-25T02:15:20.791Z,90.50
2019-05-25T02:17:49.516Z,90.40
2019-05-25T02:20:18.752Z,90.60
2019-05-25T02:22:47.423Z,90.60
2019-05-25T02:25:18.545Z,90.70
2019-05-25T02:27:46.834Z,90.50
2019-05-25T02:30:19.206Z,90.30
2019-05-25T02:32:47.895Z,90.30
2019-05-25T02:35:25.486Z,90.20
2019-05-25T02:37:54.323Z,90.40
2019-05-25T02:40:23.129Z,90.50
2019-05-25T02:42:51.822Z,90.70
2019-05-25T02:45:20.610Z,90.50
2019-05-25T02:47:49.714Z,90.40
2019-05-25T02:50:19.673Z,90.70
2019-05-25T02:52:48.428Z,91.00
2019-05-25T02:55:32.442Z,90.80
2019-05-25T02:57:47.744Z,90.80
2019-05-25T03:00:17.145Z,90.90
2019-05-25T03:02:46.131Z,91.20
2019-05-25T03:05:15.848Z,91.30
2019-05-25T03:07:45.530Z,91.60
2019-05-25T03:10:14.950Z,91.60
2019-05-25T03:12:44.660Z,91.70
2019-05-25T03:15:13.758Z,91.80
2019-05-25T03:17:42.579Z,92.10
2019-05-25T03:20:11.682Z,92.50
2019-05-25T03:22:40.356Z,92.20
2019-05-25T03:25:09.194Z,92.30
2019-05-25T03:27:37.862Z,92.20
2019-05-25T03:30:10.133Z,92.10
2019-05-25T03:32:38.937Z,92.30
2019-05-25T03:35:08.264Z,92.40
2019-05-25T03:37:36.987Z,92.60
2019-05-25T03:40:07.583Z,92.70
2019-05-25T03:42:36.376Z,92.70
2019-05-25T03:45:08.532Z,92.90
2019-05-25T03:47:37.267Z,92.70
2019-05-25T03:50:06.375Z,92.90
2019-05-25T03:52:35.169Z,92.70
2019-05-25T03:55:05.306Z,92.80
2019-05-25T03:57:34.102Z,92.90
2019-05-25T04:00:02.839Z,92.90
2019-05-25T04:02:31.494Z,93.00
2019-05-25T04:05:00.179Z,93.00
2019-05-25T04:07:28.858Z,93.20
2019-05-25T04:09:57.595Z,93.30
2019-05-25T04:12:26.279Z,93.70
2019-05-25T04:14:54.948Z,93.80
2019-05-25T04:17:23.610Z,93.90
2019-05-25T04:19:52.288Z,94.20
2019-05-25T04:22:20.965Z,94.20
2019-05-25T04:24:49.704Z,94.00
2019-05-25T04:27:18.378Z,93.70
2019-05-25T04:29:47.122Z,93.40
2019-05-25T04:32:15.787Z,93.40
2019-05-25T04:34:44.467Z,93.40
2019-05-25T04:37:13.196Z,93.50
2019-05-25T04:39:41.881Z,93.50
2019-05-25T04:42:10.539Z,93.20
2019-05-25T04:44:39.222Z,93.20
2019-05-25T04:47:07.887Z,93.00
2019-05-25T04:49:36.580Z,92.90
2019-05-25T04:52:06.152Z,93.00
2019-05-25T04:54:34.802Z,93.30
2019-05-25T04:57:03.933Z,93.40
2019-05-25T04:59:32.952Z,93.20
2019-05-25T05:02:01.687Z,93.00
2019-05-25T05:04:30.334Z,92.80
2019-05-25T05:06:59.184Z,92.70
2019-05-25T05:09:27.883Z,92.50
2019-05-25T05:11:56.586Z,92.20
2019-05-25T05:14:25.558Z,92.40
2019-05-25T05:16:54.211Z,92.40
2019-05-25T05:19:22.951Z,92.50
2019-05-25T05:21:51.677Z,92.50
2019-05-25T05:24:20.332Z,92.40
2019-05-25T05:26:55.710Z,92.40
2019-05-25T05:29:19.337Z,92.50
2019-05-25T05:31:48.061Z,92.50
2019-05-25T05:34:16.817Z,91.90
2019-05-25T05:36:46.209Z,91.80
2019-05-25T05:39:15.541Z,92.60
2019-05-25T05:41:46.875Z,94.00
2019-05-25T05:44:18.701Z,94.90
2019-05-25T05:46:48.864Z,94.60
2019-05-25T05:49:18.562Z,95.60
2019-05-25T05:51:50.308Z,95.10
2019-05-25T05:54:20.579Z,95.80
2019-05-25T05:56:49.729Z,95.80
2019-05-25T05:59:18.530Z,95.60
2019-05-25T06:01:47.306Z,95.70
2019-05-25T06:04:16.065Z,94.90
2019-05-25T06:06:44.745Z,94.50
2019-05-25T06:09:13.484Z,94.40
2019-05-25T06:11:42.245Z,94.10
2019-05-25T06:14:11.010Z,93.40
2019-05-25T06:16:39.692Z,93.00
2019-05-25T06:19:08.350Z,92.90
2019-05-25T06:21:37.021Z,92.80
2019-05-25T06:24:07.752Z,92.60
2019-05-25T06:26:36.830Z,92.90
2019-05-25T06:29:05.646Z,91.90
2019-05-25T06:31:36.081Z,92.10
2019-05-25T06:34:05.039Z,91.60
2019-05-25T06:36:33.753Z,90.70
2019-05-25T06:39:02.490Z,90.30
2019-05-25T06:41:31.170Z,89.40
2019-05-25T06:43:59.943Z,90.30
2019-05-25T06:46:28.694Z,89.80
2019-05-25T06:48:57.471Z,88.50
2019-05-25T06:51:29.423Z,88.30
2019-05-25T06:53:58.097Z,87.70
2019-05-25T06:56:26.800Z,84.50
2019-05-25T06:58:55.498Z,82.60
2019-05-25T07:01:24.471Z,81.00
2019-05-25T07:03:53.216Z,82.20
2019-05-25T07:06:21.934Z,82.70
2019-05-25T07:08:50.697Z,80.00
2019-05-25T07:11:19.490Z,79.90
2019-05-25T07:13:48.183Z,81.10
2019-05-25T07:16:16.946Z,79.30
2019-05-25T07:18:45.813Z,80.10
2019-05-25T07:21:14.724Z,78.40
2019-05-25T07:23:43.375Z,80.40
2019-05-25T07:26:12.069Z,78.00
2019-05-25T07:28:41.307Z,76.80
2019-05-25T07:31:10.132Z,74.10
2019-05-25T07:33:38.855Z,73.60
2019-05-25T07:36:08.090Z,73.50
2019-05-25T07:38:36.926Z,71.30
2019-05-25T07:41:05.665Z,69.80
2019-05-25T07:43:34.474Z,69.80
2019-05-25T07:46:03.375Z,68.70
2019-05-25T07:48:32.116Z,64.50
2019-05-25T07:51:00.816Z,61.60
2019-05-25T07:53:29.706Z,59.80
2019-05-25T07:55:58.389Z,58.80
2019-05-25T07:58:27.083Z,59.30
2019-05-25T08:00:55.857Z,59.60
2019-05-25T08:03:24.562Z,58.20
2019-05-25T08:05:53.336Z,57.30
2019-05-25T08:08:22.241Z,57.90
2019-05-25T08:10:51.174Z,56.10
2019-05-25T08:13:19.911Z,55.80
2019-05-25T08:15:48.782Z,55.40
2019-05-25T08:18:17.604Z,56.20
2019-05-25T08:20:47.333Z,56.70
2019-05-25T08:23:20.924Z,56.70
2019-05-25T08:25:49.045Z,54.20
2019-05-25T08:28:31.706Z,54.20
2019-05-25T08:30:48.654Z,54.80
2019-05-25T08:33:19.424Z,53.00
2019-05-25T08:35:48.408Z,52.10
2019-05-25T08:38:18.843Z,51.50
2019-05-25T08:40:47.582Z,50.50
2019-05-25T08:43:16.519Z,50.60
2019-05-25T08:45:48.487Z,50.10
2019-05-25T08:48:17.349Z,50.50
2019-05-25T08:50:46.238Z,48.70
2019-05-25T08:53:15.084Z,49.10
2019-05-25T08:55:50.566Z,49.50
2019-05-25T08:58:22.845Z,48.20
2019-05-25T09:01:00.669Z,49.00
2019-05-25T09:03:29.501Z,50.00
2019-05-25T09:22:01.374Z,50.60
2019-05-25T09:31:14.963Z,49.70
2019-05-25T09:34:09.168Z,48.40
2019-05-25T09:36:26.262Z,48.20
2019-05-25T09:39:00.057Z,47.00
2019-05-25T09:44:33.046Z,48.80
2019-05-25T09:49:49.489Z,47.90
2019-05-25T09:52:20.039Z,47.70
2019-05-25T09:54:56.629Z,49.00
2019-05-25T09:57:27.106Z,48.20
2019-05-25T10:00:13.171Z,47.40
2019-05-25T10:02:45.128Z,47.00
2019-05-25T10:06:11.526Z,47.60
2019-05-25T10:08:41.406Z,45.90
2019-05-25T10:11:11.414Z,47.60
2019-05-25T10:13:45.978Z,46.70
2019-05-25T10:16:17.244Z,47.60
2019-05-25T10:18:51.929Z,48.30
2019-05-25T10:21:20.554Z,48.70
2019-05-25T10:23:55.423Z,49.90
2019-05-25T10:26:26.343Z,51.70
2019-05-25T10:29:00.717Z,51.40
2019-05-25T10:31:29.646Z,52.20
2019-05-25T10:34:01.476Z,51.20
2019-05-25T10:36:49.248Z,52.70
2019-05-25T10:39:37.063Z,52.40
2019-05-25T10:42:25.746Z,52.50
2019-05-25T10:44:57.519Z,52.70
2019-05-25T10:47:26.835Z,53.20
2019-05-25T10:49:56.062Z,53.70
2019-05-25T10:52:27.585Z,54.00
2019-05-25T10:54:56.365Z,53.90
2019-05-25T10:57:25.216Z,55.70
2019-05-25T10:59:55.607Z,57.10
2019-05-25T11:02:24.360Z,57.10
2019-05-25T11:04:53.063Z,58.20
2019-05-25T11:07:21.754Z,57.80
2019-05-25T11:09:50.728Z,58.30
2019-05-25T11:12:19.604Z,59.20
2019-05-25T11:14:49.898Z,59.30
2019-05-25T11:17:18.670Z,61.60
2019-05-25T11:19:47.411Z,63.60
2019-05-25T11:22:16.919Z,65.50
2019-05-25T11:24:45.900Z,65.80
2019-05-25T11:27:14.583Z,66.10
2019-05-25T11:29:43.313Z,66.00
2019-05-25T11:32:12.066Z,65.60
2019-05-25T11:34:41.078Z,65.20
2019-05-25T11:37:10.087Z,64.20
2019-05-25T11:39:39.063Z,63.90
2019-05-25T11:42:07.919Z,63.80
2019-05-25T11:44:36.722Z,64.30
2019-05-25T11:47:05.728Z,65.20
2019-05-25T11:49:34.796Z,70.40
2019-05-25T11:52:08.921Z,75.20
2019-05-25T11:54:37.815Z,77.70
2019-05-25T11:57:12.575Z,78.30
2019-05-25T11:59:41.736Z,78.00
2019-05-25T12:02:10.575Z,79.70
2019-05-25T12:04:39.717Z,81.00
2019-05-25T12:07:08.987Z,82.20
2019-05-25T12:10:02.893Z,90.00
2019-05-25T12:12:47.175Z,93.90
2019-05-25T12:15:24.224Z,91.60
2019-05-25T12:17:59.284Z,96.20
2019-05-25T12:20:29.477Z,94.70
2019-05-25T12:23:01.895Z,96.00
2019-05-25T12:25:32.283Z,93.60
2019-05-25T12:28:01.071Z,95.60
2019-05-25T12:30:40.496Z,97.20
2019-05-25T12:33:08.468Z,96.50
2019-05-25T12:35:40.839Z,95.40
2019-05-25T12:38:11.078Z,96.60
2019-05-25T12:40:53.700Z,99.90
2019-05-25T12:43:17.945Z,97.40
2019-05-25T12:45:47.267Z,99.90
2019-05-25T12:48:16.268Z,99.40
2019-05-25T12:50:52.575Z,98.90
2019-05-25T12:53:26.005Z,99.50
2019-05-25T12:58:32.820Z,98.30
2019-05-25T13:11:18.894Z,98.50
2019-05-25T13:26:34.082Z,99.90
2019-05-25T13:29:16.351Z,99.90
2019-05-25T13:34:59.025Z,99.80
2019-05-25T13:46:35.403Z,99.90
2019-05-25T13:52:20.357Z,97.90
2019-05-25T13:57:49.258Z,99.90
2019-05-25T14:00:18.497Z,99.90
2019-05-25T14:02:47.453Z,99.30
2019-05-25T14:05:30.426Z,99.00
2019-05-25T14:08:01.467Z,99.50
2019-05-25T14:22:59.304Z,98.80
2019-05-25T14:25:31.165Z,97.90
2019-05-25T14:28:08.302Z,98.00
2019-05-25T14:30:39.292Z,97.70
2019-05-25T14:33:08.171Z,96.80
2019-05-25T14:35:36.935Z,96.80
2019-05-25T14:38:08.942Z,97.10
2019-05-25T14:40:37.839Z,96.50
2019-05-25T14:43:06.572Z,95.70
2019-05-25T14:48:23.559Z,95.20
2019-05-25T14:50:52.279Z,94.90
2019-05-25T14:53:35.356Z,95.10
2019-05-25T14:56:06.613Z,93.70
2019-05-25T14:58:35.700Z,93.30
2019-05-25T15:01:06.489Z,93.50
2019-05-25T15:03:35.525Z,93.00
2019-05-25T15:06:08.836Z,92.10
2019-05-25T15:08:37.846Z,91.90
2019-05-25T15:11:06.676Z,92.10
2019-05-25T15:13:43.839Z,92.10
2019-05-25T15:16:13.161Z,91.90
2019-05-25T15:18:51.090Z,91.90
2019-05-25T15:21:26.380Z,92.00
2019-05-25T15:24:02.811Z,92.20
2019-05-25T15:26:31.764Z,93.50
2019-05-25T15:29:11.458Z,93.00
2019-05-25T15:32:19.011Z,93.20
2019-05-25T15:34:34.967Z,93.30
2019-05-25T15:37:08.162Z,93.40
2019-05-25T15:39:43.017Z,93.60
2019-05-25T15:42:18.458Z,94.00
2019-05-25T15:44:48.869Z,94.40
2019-05-25T15:47:40.605Z,94.40
2019-05-25T15:50:11.809Z,94.70
2019-05-25T15:52:39.975Z,94.70
2019-05-25T15:55:16.014Z,94.40
2019-05-25T15:58:01.974Z,94.50
2019-05-25T16:00:56.442Z,94.70
2019-05-25T16:03:27.024Z,95.20
2019-05-25T16:05:55.840Z,95.30
2019-05-25T16:08:28.884Z,94.60
2019-05-25T16:11:06.855Z,94.70
2019-05-25T16:13:43.100Z,93.90
2019-05-25T16:17:04.384Z,93.30
2019-05-25T16:25:24.959Z,92.00
2019-05-25T16:27:55.442Z,91.10
2019-05-25T16:30:38.746Z,90.50
2019-05-25T16:36:20.885Z,90.90
2019-05-25T16:38:55.190Z,91.40
2019-05-25T16:41:35.047Z,91.20
2019-05-25T16:44:29.699Z,90.90
2019-05-25T16:50:08.088Z,92.70
2019-05-25T16:52:48.368Z,91.90
2019-05-25T16:55:17.446Z,92.40
2019-05-25T16:57:52.245Z,92.70
2019-05-25T17:00:30.660Z,92.80
2019-05-25T17:03:07.052Z,93.00
2019-05-25T17:05:37.596Z,93.00
2019-05-25T17:08:18.964Z,92.70
2019-05-25T17:10:52.770Z,92.50
2019-05-25T17:13:37.195Z,92.50
2019-05-25T17:19:01.980Z,92.70
2019-05-25T17:21:30.902Z,92.80
2019-05-25T17:24:01.345Z,93.40
2019-05-25T17:26:30.247Z,93.90
2019-05-25T17:28:59.138Z,94.80
2019-05-25T17:31:29.462Z,95.10
2019-05-25T17:33:58.459Z,95.20
2019-05-25T17:36:28.166Z,95.60
2019-05-25T17:38:57.176Z,95.30
2019-05-25T17:41:34.752Z,95.20
2019-05-25T17:44:03.658Z,95.20
2019-05-25T17:46:32.544Z,94.70
2019-05-25T17:49:07.527Z,94.50
2019-05-25T17:51:40.616Z,94.70
2019-05-25T17:54:09.492Z,93.90
2019-05-25T17:56:38.631Z,93.50
2019-05-25T17:59:07.429Z,93.70
2019-05-25T18:04:39.465Z,94.20
2019-05-25T18:07:05.791Z,93.70
2019-05-25T18:09:34.628Z,93.50
2019-05-25T18:12:03.629Z,94.20
2019-05-25T18:14:32.437Z,94.10
2019-05-25T18:17:01.298Z,93.80
2019-05-25T18:19:30.097Z,94.10
2019-05-25T18:21:59.160Z,93.90
2019-05-25T18:24:29.720Z,94.00
2019-05-25T18:26:58.737Z,95.10
2019-05-25T18:29:28.006Z,95.60
2019-05-25T18:31:56.777Z,95.40
2019-05-25T18:34:25.595Z,95.20
2019-05-25T18:36:58.208Z,95.30
2019-05-25T18:39:26.947Z,96.40
2019-05-25T18:41:55.679Z,95.90
2019-05-25T18:44:24.366Z,95.50
2019-05-25T18:46:53.184Z,96.00
2019-05-25T18:49:21.973Z,95.70
2019-05-25T18:51:50.653Z,96.00
2019-05-25T18:54:19.416Z,96.20
2019-05-25T18:56:48.214Z,96.10
2019-05-25T18:59:17.508Z,96.10
2019-05-25T19:01:46.494Z,95.80
2019-05-25T19:04:42.176Z,96.30
2019-05-25T19:06:56.356Z,96.40
2019-05-25T19:09:25.408Z,96.50
2019-05-25T19:11:54.218Z,96.40
2019-05-25T19:14:23.078Z,97.40
2019-05-25T19:17:03.531Z,97.80
2019-05-25T19:22:30.203Z,98.20
2019-05-25T19:24:59.107Z,98.80
2019-05-25T19:27:31.993Z,98.90
2019-05-25T19:30:04.571Z,98.80
2019-05-25T19:32:38.047Z,98.90
2019-05-25T19:35:07.857Z,98.70
2019-05-25T19:37:36.871Z,98.50
2019-05-25T19:40:09.061Z,98.20
2019-05-25T19:42:38.009Z,98.20
2019-05-25T19:45:09.495Z,98.20
2019-05-25T19:47:38.580Z,98.10
2019-05-25T19:50:12.052Z,98.20
2019-05-25T19:52:40.955Z,98.40
2019-05-25T19:55:09.996Z,98.80
2019-05-25T19:57:39.865Z,99.10
2019-05-25T20:00:13.476Z,99.20
2019-05-25T20:02:43.973Z,99.20
2019-05-25T20:05:16.944Z,99.00
2019-05-25T20:07:46.658Z,98.70
2019-05-25T20:10:21.838Z,98.80
2019-05-25T20:12:50.846Z,97.90
2019-05-25T20:15:25.427Z,98.30
2019-05-25T20:17:54.439Z,98.90
2019-05-25T20:20:25.483Z,98.80
2019-05-25T20:22:57.439Z,98.10
2019-05-25T20:25:26.224Z,98.10
2019-05-25T20:27:56.809Z,98.00
2019-05-25T20:30:29.056Z,98.30
2019-05-25T20:33:02.682Z,98.50
2019-05-25T20:35:33.370Z,98.50
2019-05-25T20:38:02.192Z,97.90
2019-05-25T20:40:31.568Z,97.30
2019-05-25T20:43:00.400Z,97.80
2019-05-25T20:45:31.497Z,97.70
2019-05-25T20:48:03.452Z,97.50
2019-05-25T20:50:32.521Z,97.20
2019-05-25T20:53:01.346Z,97.60
2019-05-25T20:55:32.181Z,97.30
2019-05-25T20:58:01.116Z,97.40
2019-05-25T21:00:30.518Z,97.20
2019-05-25T21:03:06.627Z,97.50
2019-05-25T21:05:49.133Z,97.90
2019-05-25T21:08:11.946Z,97.40
2019-05-25T21:10:40.770Z,98.20
2019-05-25T21:13:10.056Z,97.80
2019-05-25T21:15:38.970Z,98.20
2019-05-25T21:18:08.100Z,98.30
2019-05-25T21:20:37.150Z,98.80
2019-05-25T21:23:06.135Z,98.50
2019-05-25T21:25:35.354Z,98.50
2019-05-25T21:28:04.382Z,98.30
2019-05-25T21:30:33.334Z,97.90
2019-05-25T21:33:02.447Z,98.40
2019-05-25T21:35:31.333Z,97.70
2019-05-25T21:38:09.073Z,97.70
2019-05-25T21:40:38.322Z,97.80
2019-05-25T21:43:07.662Z,97.90
2019-05-25T21:45:38.362Z,98.00
2019-05-25T21:48:07.158Z,98.40
2019-05-25T21:50:36.033Z,98.10
2019-05-25T21:53:05.122Z,98.30
2019-05-25T21:55:36.816Z,98.40
2019-05-25T21:58:05.799Z,98.50
2019-05-25T22:00:36.387Z,98.10
2019-05-25T22:03:05.489Z,98.00
2019-05-25T22:05:35.936Z,98.00
2019-05-25T22:08:04.908Z,97.70
2019-05-25T22:10:33.756Z,97.70
2019-05-25T22:13:02.628Z,98.10
2019-05-25T22:15:31.737Z,98.40
2019-05-25T22:18:00.402Z,98.10
2019-05-25T22:20:34.272Z,98.20
2019-05-25T22:23:04.961Z,98.30
2019-05-25T22:25:36.623Z,98.20
2019-05-25T22:28:05.759Z,97.90
2019-05-25T22:30:34.481Z,97.90
2019-05-25T22:33:03.372Z,97.30
2019-05-25T22:35:32.120Z,97.10
2019-05-25T22:38:01.007Z,96.90
2019-05-25T22:40:29.771Z,97.40
2019-05-25T22:42:58.611Z,98.00
2019-05-25T22:45:27.497Z,98.00
2019-05-25T22:47:56.469Z,98.20
2019-05-25T22:50:25.388Z,98.00
2019-05-25T22:52:54.232Z,97.90
2019-05-25T22:55:23.273Z,98.20
2019-05-25T22:57:52.723Z,97.90
2019-05-25T23:00:22.925Z,97.80
2019-05-25T23:02:51.766Z,97.40
2019-05-25T23:05:20.880Z,97.60
2019-05-25T23:07:49.719Z,97.40
2019-05-25T23:10:18.646Z,97.70
2019-05-25T23:12:47.382Z,97.90
2019-05-25T23:15:16.319Z,98.10
2019-05-25T23:17:45.080Z,98.40
2019-05-25T23:20:14.007Z,98.60
2019-05-25T23:22:42.826Z,98.60
2019-05-25T23:25:11.835Z,99.00
2019-05-25T23:27:43.596Z,98.90
2019-05-25T23:30:12.735Z,98.70
2019-05-25T23:32:41.741Z,98.90
2019-05-25T23:35:10.936Z,99.00
2019-05-25T23:37:39.848Z,98.90
2019-05-25T23:40:09.095Z,98.60
2019-05-25T23:42:37.926Z,98.60
2019-05-25T23:45:08.106Z,98.60
2019-05-25T23:47:36.878Z,98.40
2019-05-25T23:50:08.843Z,98.50
2019-05-25T23:52:40.344Z,98.70
2019-05-25T23:55:09.601Z,98.80
2019-05-25T23:57:42.540Z,98.90
